createdAt,value
2022-10-01T00:00:56.722Z,98335.69
2022-10-01T00:04:53.674Z,98335.66
2022-10-01T00:08:49.607Z,98330.31
2022-10-01T00:12:45.598Z,98329.32
2022-10-01T00:16:44.652Z,98325.89
2022-10-01T00:20:45.620Z,98325.50
2022-10-01T00:24:51.445Z,98329.73
2022-10-01T00:28:49.401Z,98336.41
2022-10-01T00:37:00.201Z,98338.66
2022-10-01T00:40:57.138Z,98341.27
2022-10-01T00:44:53.057Z,98342.39
2022-10-01T00:48:48.906Z,98340.27
2022-10-01T00:52:52.734Z,98343.13
2022-10-01T00:56:48.729Z,98339.13
2022-10-01T01:05:15.388Z,98331.76
2022-10-01T01:09:12.125Z,98336.90
2022-10-01T01:13:12.324Z,98328.28
2022-10-01T01:17:08.876Z,98328.45
2022-10-01T01:21:19.825Z,98330.77
2022-10-01T01:29:43.346Z,98331.13
2022-10-01T01:33:38.988Z,98331.17
2022-10-01T01:37:48.202Z,98325.16
2022-10-01T01:41:44.894Z,98323.63
2022-10-01T01:50:12.720Z,98334.29
2022-10-01T01:54:16.547Z,98333.06
2022-10-01T01:58:17.401Z,98334.49
2022-10-01T02:06:34.096Z,98330.68
2022-10-01T02:10:34.915Z,98333.95
2022-10-01T02:14:45.694Z,98328.71
2022-10-01T02:19:04.483Z,98334.86
2022-10-01T02:23:04.503Z,98331.71
2022-10-01T02:27:11.104Z,98332.89
2022-10-01T02:31:11.152Z,98341.95
2022-10-01T02:35:10.941Z,98342.08
2022-10-01T02:39:19.532Z,98338.23
2022-10-01T02:47:35.318Z,98350.91
2022-10-01T02:51:35.623Z,98344.92
2022-10-01T02:55:40.341Z,98338.86
2022-10-01T02:59:51.639Z,98338.28
2022-10-01T03:03:47.680Z,98345.97
2022-10-01T03:12:14.086Z,98351.43
2022-10-01T03:16:32.647Z,98347.02
2022-10-01T03:24:42.483Z,98326.39
2022-10-01T03:28:42.292Z,98323.52
2022-10-01T03:32:42.270Z,98327.81
2022-10-01T03:41:08.144Z,98328.20
2022-10-01T03:45:04.847Z,98321.90
2022-10-01T03:49:10.893Z,98325.20
2022-10-01T03:57:23.762Z,98324.21
2022-10-01T04:01:15.598Z,98319.30
2022-10-01T04:09:25.533Z,98311.70
2022-10-01T04:13:28.173Z,98308.34
2022-10-01T04:17:42.700Z,98299.53
2022-10-01T04:21:42.839Z,98289.56
2022-10-01T04:25:38.738Z,98292.35
2022-10-01T04:29:40.355Z,98289.19
2022-10-01T04:33:36.573Z,98282.19
2022-10-01T04:37:32.415Z,98287.49
2022-10-01T04:41:29.396Z,98288.63
2022-10-01T04:45:05.290Z,98286.55
2022-10-01T04:48:37.367Z,98284.44
2022-10-01T04:52:09.322Z,98290.33
2022-10-01T04:55:41.390Z,98288.23
2022-10-01T04:59:41.236Z,98289.11
2022-10-01T05:03:37.090Z,98286.08
2022-10-01T05:07:32.995Z,98285.98
2022-10-01T05:11:28.832Z,98286.28
2022-10-01T05:15:24.689Z,98290.00
2022-10-01T05:19:20.609Z,98297.15
2022-10-01T05:23:17.387Z,98301.86
2022-10-01T05:27:13.457Z,98312.71
2022-10-01T05:31:10.343Z,98305.98
2022-10-01T05:35:06.168Z,98301.23
2022-10-01T05:39:21.356Z,98296.00
2022-10-01T05:43:16.169Z,98296.13
2022-10-01T05:47:24.719Z,98296.36
2022-10-01T05:51:24.781Z,98293.12
2022-10-01T05:55:24.472Z,98284.89
2022-10-01T06:03:50.679Z,98292.56
2022-10-01T06:07:47.408Z,98289.13
2022-10-01T06:11:48.283Z,98287.70
2022-10-01T06:15:48.116Z,98289.98
2022-10-01T06:19:50.167Z,98282.52
2022-10-01T06:28:07.839Z,98288.95
2022-10-01T06:32:08.607Z,98289.11
2022-10-01T06:36:05.631Z,98289.38
2022-10-01T06:44:18.347Z,98279.98
2022-10-01T06:48:20.082Z,98279.16
2022-10-01T06:52:21.011Z,98285.16
2022-10-01T06:56:24.819Z,98287.67
2022-10-01T07:00:02.279Z,98288.73
2022-10-01T07:03:35.848Z,98288.94
2022-10-01T07:07:07.974Z,98289.38
2022-10-01T07:10:45.829Z,98285.39
2022-10-01T07:14:41.767Z,98279.33
2022-10-01T07:18:37.577Z,98282.65
2022-10-01T07:22:33.589Z,98277.95
2022-10-01T07:26:34.279Z,98274.99
2022-10-01T07:30:21.212Z,98280.00
2022-10-01T07:34:21.051Z,98273.27
2022-10-01T07:38:23.427Z,98268.33
2022-10-01T07:42:19.225Z,98264.73
2022-10-01T07:45:55.417Z,98259.84
2022-10-01T07:49:42.199Z,98257.46
2022-10-01T07:57:03.313Z,98255.77
2022-10-01T08:00:39.225Z,98255.02
2022-10-01T08:04:12.311Z,98256.48
2022-10-01T08:07:56.297Z,98260.21
2022-10-01T08:11:28.356Z,98255.62
2022-10-01T08:15:28.034Z,98247.79
2022-10-01T08:19:25.063Z,98243.57
2022-10-01T08:23:20.737Z,98240.60
2022-10-01T08:27:29.933Z,98247.54
2022-10-01T08:31:29.131Z,98245.88
2022-10-01T08:35:28.977Z,98234.82
2022-10-01T08:39:26.420Z,98234.00
2022-10-01T08:43:25.949Z,98235.74
2022-10-01T08:47:21.793Z,98228.85
2022-10-01T08:51:31.864Z,98226.06
2022-10-01T08:55:32.507Z,98221.12
2022-10-01T08:59:29.584Z,98218.64
2022-10-01T09:03:29.262Z,98216.83
2022-10-01T09:07:26.256Z,98211.23
2022-10-01T09:11:25.100Z,98211.71
2022-10-01T09:15:28.137Z,98209.23
2022-10-01T09:19:27.853Z,98212.52
2022-10-01T09:23:33.824Z,98212.21
2022-10-01T09:27:37.265Z,98199.69
2022-10-01T09:31:38.612Z,98195.92
2022-10-01T09:35:55.413Z,98199.57
2022-10-01T09:39:52.685Z,98192.38
2022-10-01T09:43:49.326Z,98186.60
2022-10-01T09:47:51.784Z,98185.95
2022-10-01T09:51:51.745Z,98189.88
2022-10-01T09:55:52.779Z,98185.15
2022-10-01T09:59:29.659Z,98182.91
2022-10-01T10:03:05.930Z,98185.36
2022-10-01T10:06:41.706Z,98184.45
2022-10-01T10:11:52.854Z,98173.41
2022-10-01T10:15:52.530Z,98164.55
2022-10-01T10:19:48.403Z,98161.41
2022-10-01T10:23:55.261Z,98149.84
2022-10-01T10:28:00.818Z,98143.77
2022-10-01T10:36:21.300Z,98133.25
2022-10-01T10:40:22.760Z,98120.50
2022-10-01T10:44:24.075Z,98114.39
2022-10-01T10:48:23.442Z,98104.49
2022-10-01T10:52:55.991Z,98094.88
2022-10-01T10:57:02.637Z,98084.37
2022-10-01T11:01:02.531Z,98076.35
2022-10-01T11:05:06.168Z,98068.23
2022-10-01T11:09:03.164Z,98064.89
2022-10-01T11:17:10.003Z,98038.60
2022-10-01T11:21:06.704Z,98038.90
2022-10-01T11:25:02.719Z,98025.73
2022-10-01T11:29:02.290Z,98014.90
2022-10-01T11:33:25.530Z,98007.18
2022-10-01T11:37:30.576Z,97998.55
2022-10-01T11:41:32.650Z,97993.69
2022-10-01T11:45:33.410Z,97988.83
2022-10-01T11:49:40.316Z,97985.69
2022-10-01T11:53:47.141Z,97975.79
2022-10-01T11:57:26.879Z,97974.51
2022-10-01T12:01:06.156Z,97969.65
2022-10-01T12:05:05.308Z,97969.05
2022-10-01T12:08:37.156Z,97958.77
2022-10-01T12:12:11.559Z,97960.34
2022-10-01T12:15:50.217Z,97957.32
2022-10-01T12:19:22.263Z,97956.52
2022-10-01T12:22:44.251Z,97960.13
2022-10-01T12:26:16.572Z,97959.80
2022-10-01T12:29:54.124Z,97950.52
2022-10-01T12:33:30.139Z,97944.52
2022-10-01T12:37:05.180Z,97940.16
2022-10-01T12:41:13.029Z,97932.91
2022-10-01T12:45:18.762Z,97933.13
2022-10-01T12:49:11.816Z,97930.77
2022-10-01T12:52:51.763Z,97929.04
2022-10-01T12:56:34.119Z,97933.13
2022-10-01T13:00:10.799Z,97928.23
2022-10-01T13:04:06.724Z,97923.20
2022-10-01T13:07:59.663Z,97912.45
2022-10-01T13:11:31.740Z,97909.06
2022-10-01T13:15:09.675Z,97908.09
2022-10-01T13:18:39.701Z,97907.60
2022-10-01T13:22:17.657Z,97902.13
2022-10-01T13:25:49.758Z,97901.02
2022-10-01T13:29:21.720Z,97896.29
2022-10-01T13:32:57.761Z,97901.10
2022-10-01T13:36:29.643Z,97896.60
2022-10-01T13:40:18.730Z,97896.55
2022-10-01T13:43:50.648Z,97893.48
2022-10-01T13:47:22.754Z,97886.20
2022-10-01T13:50:54.655Z,97881.98
2022-10-01T13:54:35.752Z,97877.89
2022-10-01T13:58:07.669Z,97876.10
2022-10-01T14:01:39.786Z,97873.95
2022-10-01T14:05:11.637Z,97875.77
2022-10-01T14:08:43.700Z,97872.31
2022-10-01T14:12:16.631Z,97871.23
2022-10-01T14:15:55.776Z,97865.19
2022-10-01T14:19:29.659Z,97866.41
2022-10-01T14:23:03.815Z,97861.52
2022-10-01T14:26:39.635Z,97856.23
2022-10-01T14:30:36.700Z,97848.14
2022-10-01T14:34:35.431Z,97842.75
2022-10-01T14:38:52.908Z,97839.73
2022-10-01T14:42:53.244Z,97832.30
2022-10-01T14:46:44.234Z,97823.95
2022-10-01T14:50:40.362Z,97822.48
2022-10-01T14:54:36.280Z,97822.42
2022-10-01T14:58:37.165Z,97807.44
2022-10-01T15:02:56.409Z,97803.45
2022-10-01T15:06:31.318Z,97805.60
2022-10-01T15:10:06.271Z,97809.48
2022-10-01T15:13:43.217Z,97803.61
2022-10-01T15:17:17.377Z,97797.61
2022-10-01T15:20:47.223Z,97790.57
2022-10-01T15:24:21.333Z,97792.67
2022-10-01T15:28:00.285Z,97787.60
2022-10-01T15:31:32.466Z,97787.27
2022-10-01T15:35:04.290Z,97788.08
2022-10-01T15:38:44.335Z,97791.91
2022-10-01T15:42:17.307Z,97792.77
2022-10-01T15:45:54.346Z,97791.42
2022-10-01T15:49:32.212Z,97782.84
2022-10-01T15:53:12.320Z,97789.20
2022-10-01T15:56:36.403Z,97783.47
2022-10-01T16:00:07.389Z,97784.21
2022-10-01T16:03:57.216Z,97785.31
2022-10-01T16:07:31.313Z,97788.95
2022-10-01T16:11:11.186Z,97787.96
2022-10-01T16:14:44.312Z,97789.34
2022-10-01T16:18:19.219Z,97781.61
2022-10-01T16:22:10.842Z,97783.48
2022-10-01T16:25:52.678Z,97779.31
2022-10-01T16:29:24.765Z,97780.85
2022-10-01T16:33:00.678Z,97773.45
2022-10-01T16:36:35.121Z,97774.47
2022-10-01T16:40:19.705Z,97769.33
2022-10-01T16:43:55.784Z,97755.34
2022-10-01T16:47:31.640Z,97756.94
2022-10-01T16:51:07.955Z,97765.67
2022-10-01T16:54:35.646Z,97769.19
2022-10-01T16:58:11.827Z,97772.70
2022-10-01T17:01:40.654Z,97764.66
2022-10-01T17:05:16.731Z,97762.23
2022-10-01T17:08:48.644Z,97760.21
2022-10-01T17:12:23.761Z,97753.96
2022-10-01T17:15:49.666Z,97753.59
2022-10-01T17:19:21.698Z,97745.85
2022-10-01T17:22:53.670Z,97741.91
2022-10-01T17:26:16.744Z,97742.69
2022-10-01T17:29:52.690Z,97741.06
2022-10-01T17:33:29.764Z,97740.70
2022-10-01T17:37:02.654Z,97742.55
2022-10-01T17:40:38.964Z,97733.34
2022-10-01T17:44:15.731Z,97731.08
2022-10-01T17:47:51.719Z,97731.59
2022-10-01T17:51:31.715Z,97733.89
2022-10-01T17:55:35.088Z,97725.20
2022-10-01T17:59:03.994Z,97726.49
2022-10-01T18:02:42.838Z,97725.00
2022-10-01T18:06:15.996Z,97727.98
2022-10-01T18:10:12.024Z,97731.44
2022-10-01T18:14:17.800Z,97735.91
2022-10-01T18:22:13.940Z,97750.30
2022-10-01T18:29:48.660Z,97784.34
2022-10-01T18:33:24.475Z,97791.17
2022-10-01T18:37:04.626Z,97795.73
2022-10-01T18:40:40.447Z,97801.42
2022-10-01T18:53:28.232Z,97812.51
2022-10-01T19:10:50.448Z,97823.75
2022-10-01T19:19:19.607Z,97837.27
2022-10-01T19:23:28.331Z,97845.39
2022-10-01T19:27:33.401Z,97854.14
2022-10-01T19:31:44.010Z,97856.20
2022-10-01T19:35:41.162Z,97861.23
2022-10-01T19:39:42.947Z,97859.73
2022-10-01T19:43:44.079Z,97862.88
2022-10-01T19:47:52.804Z,97868.79
2022-10-01T19:51:53.315Z,97871.84
2022-10-01T19:56:16.556Z,97875.34
2022-10-01T20:04:41.520Z,97866.02
2022-10-01T20:13:05.990Z,97868.39
2022-10-01T20:21:34.988Z,97870.76
2022-10-01T20:25:32.406Z,97878.99
2022-10-01T20:29:28.390Z,97881.47
2022-10-01T20:33:28.837Z,97878.63
2022-10-01T20:37:40.934Z,97884.75
2022-10-01T20:41:45.851Z,97886.02
2022-10-01T20:50:14.663Z,97892.80
2022-10-01T21:02:14.382Z,97896.08
2022-10-01T21:07:28.252Z,97892.83
2022-10-01T21:11:26.916Z,97897.71
2022-10-01T21:15:31.338Z,97901.08
2022-10-01T21:19:32.694Z,97909.09
2022-10-01T21:23:53.045Z,97909.95
2022-10-01T21:28:05.638Z,97911.26
2022-10-01T21:31:56.899Z,97910.60
2022-10-01T21:35:57.389Z,97915.02
2022-10-01T21:39:53.811Z,97909.70
2022-10-01T21:44:08.847Z,97911.56
2022-10-01T21:53:19.797Z,97915.47
2022-10-01T21:57:10.586Z,97916.42
2022-10-01T22:05:25.561Z,97924.02
2022-10-01T22:09:12.152Z,97921.31
2022-10-01T22:13:18.901Z,97930.20
2022-10-01T22:17:34.519Z,97926.21
2022-10-01T22:26:10.093Z,97936.54
2022-10-01T22:34:23.565Z,97938.66
2022-10-01T22:51:35.450Z,97942.78
2022-10-01T22:55:35.286Z,97948.87
2022-10-01T22:59:35.119Z,97951.38
2022-10-01T23:03:42.658Z,97952.17
2022-10-01T23:07:46.654Z,97953.45
2022-10-01T23:15:55.517Z,97958.88
2022-10-01T23:19:54.334Z,97958.71
2022-10-01T23:23:53.416Z,97965.10
2022-10-01T23:27:26.256Z,97972.30
2022-10-01T23:30:58.330Z,97971.38
2022-10-01T23:34:30.267Z,97980.35
2022-10-01T23:38:17.311Z,97986.02
2022-10-01T23:42:14.151Z,97985.91
2022-10-01T23:46:11.253Z,97979.48
2022-10-01T23:50:23.988Z,97982.10
2022-10-01T23:54:20.910Z,97992.05
2022-10-01T23:58:20.693Z,97991.87
